sensor_id;sensor_type;location;lat;lon;timestamp;pressure;altitude;pressure_sealevel;temperature;humidity
22651;BME280;11492;42.646;23.400;2023-07-13T00:01:27;95274.56;;;22.69;55.98
22651;BME280;11492;42.646;23.400;2023-07-13T00:03:53;95268.00;;;22.72;56.04
22651;BME280;11492;42.646;23.400;2023-07-13T00:06:19;95264.81;;;22.70;56.03
22651;BME280;11492;42.646;23.400;2023-07-13T00:08:45;95266.78;;;22.58;56.11
22651;BME280;11492;42.646;23.400;2023-07-13T00:11:13;95259.97;;;22.41;56.68
22651;BME280;11492;42.646;23.400;2023-07-13T00:13:40;95265.69;;;22.54;56.59
22651;BME280;11492;42.646;23.400;2023-07-13T00:16:07;95265.69;;;22.54;56.25
22651;BME280;11492;42.646;23.400;2023-07-13T00:18:32;95270.53;;;22.62;56.30
22651;BME280;11492;42.646;23.400;2023-07-13T00:20:58;95274.50;;;22.64;56.17
22651;BME280;11492;42.646;23.400;2023-07-13T00:23:34;95265.00;;;22.63;56.09
22651;BME280;11492;42.646;23.400;2023-07-13T00:26:02;95268.00;;;22.50;56.55
22651;BME280;11492;42.646;23.400;2023-07-13T00:28:28;95264.88;;;22.53;56.59
22651;BME280;11492;42.646;23.400;2023-07-13T00:30:53;95263.34;;;22.57;56.39
22651;BME280;11492;42.646;23.400;2023-07-13T00:33:19;95263.53;;;22.51;56.58
22651;BME280;11492;42.646;23.400;2023-07-13T00:35:45;95249.50;;;22.46;56.90
22651;BME280;11492;42.646;23.400;2023-07-13T00:38:10;95248.41;;;22.42;56.72
22651;BME280;11492;42.646;23.400;2023-07-13T00:40:36;95249.44;;;22.41;57.34
22651;BME280;11492;42.646;23.400;2023-07-13T00:43:01;95250.41;;;22.35;57.34
22651;BME280;11492;42.646;23.400;2023-07-13T00:47:55;95259.53;;;22.27;59.52
22651;BME280;11492;42.646;23.400;2023-07-13T00:50:22;95244.41;;;22.18;60.32
22651;BME280;11492;42.646;23.400;2023-07-13T00:52:50;95255.44;;;22.15;60.83
22651;BME280;11492;42.646;23.400;2023-07-13T00:55:17;95249.59;;;22.13;61.66
22651;BME280;11492;42.646;23.400;2023-07-13T00:57:43;95245.38;;;22.12;62.19
22651;BME280;11492;42.646;23.400;2023-07-13T01:00:10;95246.09;;;22.08;62.69
22651;BME280;11492;42.646;23.400;2023-07-13T01:02:42;95242.59;;;22.02;62.24
22651;BME280;11492;42.646;23.400;2023-07-13T01:05:14;95239.78;;;21.93;60.51
22651;BME280;11492;42.646;23.400;2023-07-13T01:07:41;95239.00;;;21.92;60.50
22651;BME280;11492;42.646;23.400;2023-07-13T01:10:08;95244.25;;;21.92;60.06
22651;BME280;11492;42.646;23.400;2023-07-13T01:12:33;95245.56;;;21.90;59.53
22651;BME280;11492;42.646;23.400;2023-07-13T01:15:01;95242.94;;;21.90;59.13
22651;BME280;11492;42.646;23.400;2023-07-13T01:17:28;95247.16;;;21.91;59.22
22651;BME280;11492;42.646;23.400;2023-07-13T01:19:54;95237.09;;;21.88;59.07
22651;BME280;11492;42.646;23.400;2023-07-13T01:22:20;95243.94;;;21.89;59.36
22651;BME280;11492;42.646;23.400;2023-07-13T01:24:52;95245.69;;;21.83;59.45
22651;BME280;11492;42.646;23.400;2023-07-13T01:27:24;95239.66;;;21.83;59.38
22651;BME280;11492;42.646;23.400;2023-07-13T01:29:53;95231.13;;;21.76;59.68
22651;BME280;11492;42.646;23.400;2023-07-13T01:32:27;95236.16;;;21.77;59.81
22651;BME280;11492;42.646;23.400;2023-07-13T01:34:53;95246.13;;;21.75;59.48
22651;BME280;11492;42.646;23.400;2023-07-13T01:37:20;95240.63;;;21.77;59.88
22651;BME280;11492;42.646;23.400;2023-07-13T01:39:46;95245.31;;;21.75;59.89
22651;BME280;11492;42.646;23.400;2023-07-13T01:42:12;95242.63;;;21.70;60.26
22651;BME280;11492;42.646;23.400;2023-07-13T01:44:37;95244.47;;;21.70;60.33
22651;BME280;11492;42.646;23.400;2023-07-13T01:47:03;95250.50;;;21.70;60.12
22651;BME280;11492;42.646;23.400;2023-07-13T01:49:29;95242.88;;;21.69;60.38
22651;BME280;11492;42.646;23.400;2023-07-13T01:51:54;95238.25;;;21.59;60.53
22651;BME280;11492;42.646;23.400;2023-07-13T01:54:20;95234.09;;;21.63;60.52
22651;BME280;11492;42.646;23.400;2023-07-13T01:56:45;95237.81;;;21.67;60.28
22651;BME280;11492;42.646;23.400;2023-07-13T01:59:11;95232.56;;;21.67;60.13
22651;BME280;11492;42.646;23.400;2023-07-13T02:01:36;95235.19;;;21.67;60.28
22651;BME280;11492;42.646;23.400;2023-07-13T02:04:02;95241.41;;;21.61;60.27
22651;BME280;11492;42.646;23.400;2023-07-13T02:06:28;95244.22;;;21.55;60.59
22651;BME280;11492;42.646;23.400;2023-07-13T02:08:54;95244.53;;;21.58;60.65
22651;BME280;11492;42.646;23.400;2023-07-13T02:11:19;95250.03;;;21.57;60.68
22651;BME280;11492;42.646;23.400;2023-07-13T02:13:45;95250.50;;;21.54;61.08
22651;BME280;11492;42.646;23.400;2023-07-13T02:16:10;95243.66;;;21.53;61.04
22651;BME280;11492;42.646;23.400;2023-07-13T02:18:35;95243.88;;;21.51;60.97
22651;BME280;11492;42.646;23.400;2023-07-13T02:21:01;95248.28;;;21.46;61.04
22651;BME280;11492;42.646;23.400;2023-07-13T02:23:28;95242.03;;;21.36;61.51
22651;BME280;11492;42.646;23.400;2023-07-13T02:25:57;95242.63;;;21.38;61.30
22651;BME280;11492;42.646;23.400;2023-07-13T02:28:23;95246.66;;;21.29;61.58
22651;BME280;11492;42.646;23.400;2023-07-13T02:30:49;95248.69;;;21.38;61.13
22651;BME280;11492;42.646;23.400;2023-07-13T02:33:14;95245.50;;;21.25;61.38
22651;BME280;11492;42.646;23.400;2023-07-13T02:35:40;95256.56;;;21.38;61.09
22651;BME280;11492;42.646;23.400;2023-07-13T02:38:06;95257.19;;;21.29;61.49
22651;BME280;11492;42.646;23.400;2023-07-13T02:40:31;95263.75;;;21.43;60.98
22651;BME280;11492;42.646;23.400;2023-07-13T02:42:59;95261.16;;;21.48;60.88
22651;BME280;11492;42.646;23.400;2023-07-13T02:45:25;95249.47;;;21.11;61.42
22651;BME280;11492;42.646;23.400;2023-07-13T02:47:50;95250.56;;;21.26;61.38
22651;BME280;11492;42.646;23.400;2023-07-13T02:50:16;95256.41;;;21.45;61.11
22651;BME280;11492;42.646;23.400;2023-07-13T02:52:42;95248.91;;;21.37;60.71
22651;BME280;11492;42.646;23.400;2023-07-13T02:55:07;95268.84;;;21.49;61.35
22651;BME280;11492;42.646;23.400;2023-07-13T02:57:33;95257.53;;;21.49;60.60
22651;BME280;11492;42.646;23.400;2023-07-13T03:00:00;95258.31;;;21.49;60.51
22651;BME280;11492;42.646;23.400;2023-07-13T03:02:25;95267.88;;;21.55;60.70
22651;BME280;11492;42.646;23.400;2023-07-13T03:04:53;95256.88;;;21.58;60.71
22651;BME280;11492;42.646;23.400;2023-07-13T03:07:19;95261.75;;;21.49;60.87
22651;BME280;11492;42.646;23.400;2023-07-13T03:09:44;95257.03;;;21.51;60.66
22651;BME280;11492;42.646;23.400;2023-07-13T03:12:10;95265.78;;;21.57;60.59
22651;BME280;11492;42.646;23.400;2023-07-13T03:14:35;95258.53;;;21.48;60.81
22651;BME280;11492;42.646;23.400;2023-07-13T03:17:00;95263.56;;;21.49;61.20
22651;BME280;11492;42.646;23.400;2023-07-13T03:19:26;95255.34;;;21.29;61.63
22651;BME280;11492;42.646;23.400;2023-07-13T03:21:51;95265.50;;;21.37;61.48
22651;BME280;11492;42.646;23.400;2023-07-13T03:24:17;95275.50;;;21.40;61.36
22651;BME280;11492;42.646;23.400;2023-07-13T03:26:42;95271.44;;;21.33;61.67
22651;BME280;11492;42.646;23.400;2023-07-13T03:29:08;95270.41;;;21.34;61.60
22651;BME280;11492;42.646;23.400;2023-07-13T03:31:37;95277.16;;;21.30;62.07
22651;BME280;11492;42.646;23.400;2023-07-13T03:34:03;95274.53;;;21.30;62.01
22651;BME280;11492;42.646;23.400;2023-07-13T03:36:30;95279.25;;;21.28;62.24
22651;BME280;11492;42.646;23.400;2023-07-13T03:38:58;95266.91;;;21.28;61.75
22651;BME280;11492;42.646;23.400;2023-07-13T03:41:24;95279.78;;;21.30;61.93
22651;BME280;11492;42.646;23.400;2023-07-13T03:43:51;95270.31;;;21.29;62.22
22651;BME280;11492;42.646;23.400;2023-07-13T03:46:17;95275.66;;;21.34;61.96
22651;BME280;11492;42.646;23.400;2023-07-13T03:48:45;95260.94;;;21.33;62.10
22651;BME280;11492;42.646;23.400;2023-07-13T03:51:12;95262.91;;;21.26;62.00
22651;BME280;11492;42.646;23.400;2023-07-13T03:53:43;95270.41;;;21.34;62.20
22651;BME280;11492;42.646;23.400;2023-07-13T03:56:09;95268.66;;;21.39;62.10
22651;BME280;11492;42.646;23.400;2023-07-13T03:58:36;95267.72;;;21.45;62.21
22651;BME280;11492;42.646;23.400;2023-07-13T04:01:04;95273.13;;;21.55;62.35
22651;BME280;11492;42.646;23.400;2023-07-13T04:03:31;95272.34;;;21.54;61.95
22651;BME280;11492;42.646;23.400;2023-07-13T04:05:59;95265.00;;;21.56;62.12
22651;BME280;11492;42.646;23.400;2023-07-13T04:08:30;95265.66;;;21.63;61.73
22651;BME280;11492;42.646;23.400;2023-07-13T04:10:57;95265.88;;;21.62;61.64
22651;BME280;11492;42.646;23.400;2023-07-13T04:13:23;95269.78;;;21.59;61.88
22651;BME280;11492;42.646;23.400;2023-07-13T04:15:49;95269.63;;;21.66;61.46
22651;BME280;11492;42.646;23.400;2023-07-13T04:18:15;95265.66;;;21.63;61.75
22651;BME280;11492;42.646;23.400;2023-07-13T04:20:40;95268.59;;;21.67;62.03
22651;BME280;11492;42.646;23.400;2023-07-13T04:23:06;95270.91;;;21.63;62.39
22651;BME280;11492;42.646;23.400;2023-07-13T04:25:31;95273.47;;;21.74;62.05
22651;BME280;11492;42.646;23.400;2023-07-13T04:27:57;95278.56;;;21.81;62.04
22651;BME280;11492;42.646;23.400;2023-07-13T04:30:23;95285.88;;;21.95;61.78
22651;BME280;11492;42.646;23.400;2023-07-13T04:32:50;95282.47;;;21.95;61.98
22651;BME280;11492;42.646;23.400;2023-07-13T04:35:17;95277.75;;;21.97;61.84
22651;BME280;11492;42.646;23.400;2023-07-13T04:37:42;95276.34;;;22.05;62.00
22651;BME280;11492;42.646;23.400;2023-07-13T04:40:08;95291.00;;;22.01;61.52
22651;BME280;11492;42.646;23.400;2023-07-13T04:42:37;95279.50;;;22.07;61.23
22651;BME280;11492;42.646;23.400;2023-07-13T04:45:03;95287.88;;;22.21;61.17
22651;BME280;11492;42.646;23.400;2023-07-13T04:47:30;95294.88;;;22.31;61.53
22651;BME280;11492;42.646;23.400;2023-07-13T04:49:55;95292.31;;;22.36;60.86
22651;BME280;11492;42.646;23.400;2023-07-13T04:52:22;95282.66;;;22.42;61.13
22651;BME280;11492;42.646;23.400;2023-07-13T04:54:48;95294.91;;;22.52;60.80
22651;BME280;11492;42.646;23.400;2023-07-13T04:57:13;95279.56;;;22.49;61.22
22651;BME280;11492;42.646;23.400;2023-07-13T04:59:39;95299.16;;;22.37;61.04
22651;BME280;11492;42.646;23.400;2023-07-13T05:02:04;95291.09;;;22.44;61.23
22651;BME280;11492;42.646;23.400;2023-07-13T05:04:30;95306.75;;;22.34;61.59
22651;BME280;11492;42.646;23.400;2023-07-13T05:06:56;95304.72;;;22.41;61.53
22651;BME280;11492;42.646;23.400;2023-07-13T05:09:21;95312.53;;;22.52;61.23
22651;BME280;11492;42.646;23.400;2023-07-13T05:11:47;95313.47;;;22.62;60.90
22651;BME280;11492;42.646;23.400;2023-07-13T05:14:12;95307.63;;;22.60;61.28
22651;BME280;11492;42.646;23.400;2023-07-13T05:16:38;95307.00;;;22.53;61.40
22651;BME280;11492;42.646;23.400;2023-07-13T05:19:03;95319.88;;;22.71;61.34
22651;BME280;11492;42.646;23.400;2023-07-13T05:21:29;95319.56;;;22.84;60.88
22651;BME280;11492;42.646;23.400;2023-07-13T05:23:54;95320.16;;;22.91;61.05
22651;BME280;11492;42.646;23.400;2023-07-13T05:26:20;95306.00;;;22.97;60.30
22651;BME280;11492;42.646;23.400;2023-07-13T05:28:46;95323.28;;;23.09;60.10
22651;BME280;11492;42.646;23.400;2023-07-13T05:31:11;95316.78;;;23.16;60.30
22651;BME280;11492;42.646;23.400;2023-07-13T05:33:37;95327.69;;;23.25;60.25
22651;BME280;11492;42.646;23.400;2023-07-13T05:36:02;95308.50;;;23.34;60.20
22651;BME280;11492;42.646;23.400;2023-07-13T05:38:28;95318.19;;;23.45;59.77
22651;BME280;11492;42.646;23.400;2023-07-13T05:40:55;95315.47;;;23.40;58.21
22651;BME280;11492;42.646;23.400;2023-07-13T05:43:21;95316.06;;;23.47;58.03
22651;BME280;11492;42.646;23.400;2023-07-13T05:45:47;95311.66;;;23.52;57.87
22651;BME280;11492;42.646;23.400;2023-07-13T05:48:14;95325.72;;;23.62;58.32
22651;BME280;11492;42.646;23.400;2023-07-13T05:50:40;95320.00;;;23.70;58.32
22651;BME280;11492;42.646;23.400;2023-07-13T05:53:06;95319.00;;;23.76;58.27
22651;BME280;11492;42.646;23.400;2023-07-13T05:55:31;95319.28;;;23.79;57.98
22651;BME280;11492;42.646;23.400;2023-07-13T05:57:57;95318.03;;;23.87;58.15
22651;BME280;11492;42.646;23.400;2023-07-13T06:00:24;95313.34;;;23.94;58.06
22651;BME280;11492;42.646;23.400;2023-07-13T06:02:49;95323.94;;;23.99;57.86
22651;BME280;11492;42.646;23.400;2023-07-13T06:05:15;95320.56;;;24.08;57.90
22651;BME280;11492;42.646;23.400;2023-07-13T06:07:41;95317.78;;;24.19;57.90
22651;BME280;11492;42.646;23.400;2023-07-13T06:10:06;95316.31;;;24.33;57.07
22651;BME280;11492;42.646;23.400;2023-07-13T06:12:32;95308.44;;;24.43;56.41
22651;BME280;11492;42.646;23.400;2023-07-13T06:14:57;95308.75;;;24.51;56.10
22651;BME280;11492;42.646;23.400;2023-07-13T06:17:23;95309.31;;;24.63;55.82
22651;BME280;11492;42.646;23.400;2023-07-13T06:19:48;95312.81;;;24.73;55.58
22651;BME280;11492;42.646;23.400;2023-07-13T06:22:13;95310.78;;;24.80;54.67
22651;BME280;11492;42.646;23.400;2023-07-13T06:24:39;95314.00;;;24.92;53.38
22651;BME280;11492;42.646;23.400;2023-07-13T06:27:05;95316.16;;;25.00;53.45
22651;BME280;11492;42.646;23.400;2023-07-13T06:29:30;95316.44;;;25.08;53.41
22651;BME280;11492;42.646;23.400;2023-07-13T06:31:56;95315.69;;;25.17;53.14
22651;BME280;11492;42.646;23.400;2023-07-13T06:34:22;95304.88;;;25.28;53.18
22651;BME280;11492;42.646;23.400;2023-07-13T06:36:47;95308.59;;;25.37;53.29
22651;BME280;11492;42.646;23.400;2023-07-13T06:39:13;95310.75;;;25.45;53.94
22651;BME280;11492;42.646;23.400;2023-07-13T06:41:38;95297.53;;;25.50;53.67
22651;BME280;11492;42.646;23.400;2023-07-13T06:44:04;95303.91;;;25.64;54.28
22651;BME280;11492;42.646;23.400;2023-07-13T06:46:29;95303.13;;;25.73;53.60
22651;BME280;11492;42.646;23.400;2023-07-13T06:48:56;95303.16;;;25.83;53.39
22651;BME280;11492;42.646;23.400;2023-07-13T06:51:21;95304.47;;;25.95;53.72
22651;BME280;11492;42.646;23.400;2023-07-13T06:53:47;95308.69;;;26.01;52.51
22651;BME280;11492;42.646;23.400;2023-07-13T06:56:12;95306.88;;;26.11;51.95
22651;BME280;11492;42.646;23.400;2023-07-13T06:58:38;95303.16;;;26.22;51.33
22651;BME280;11492;42.646;23.400;2023-07-13T07:01:04;95301.56;;;26.36;51.09
22651;BME280;11492;42.646;23.400;2023-07-13T07:03:30;95297.31;;;26.45;51.41
22651;BME280;11492;42.646;23.400;2023-07-13T07:06:22;95304.41;;;26.54;51.12
22651;BME280;11492;42.646;23.400;2023-07-13T07:08:51;95303.34;;;26.65;51.53
22651;BME280;11492;42.646;23.400;2023-07-13T07:11:22;95305.19;;;26.79;50.94
22651;BME280;11492;42.646;23.400;2023-07-13T07:13:48;95308.59;;;26.84;50.61
22651;BME280;11492;42.646;23.400;2023-07-13T07:16:14;95301.97;;;26.92;50.30
22651;BME280;11492;42.646;23.400;2023-07-13T07:18:39;95308.53;;;27.04;49.83
22651;BME280;11492;42.646;23.400;2023-07-13T07:21:05;95300.81;;;27.12;50.00
22651;BME280;11492;42.646;23.400;2023-07-13T07:23:30;95306.06;;;27.27;50.26
22651;BME280;11492;42.646;23.400;2023-07-13T07:25:56;95306.00;;;27.42;50.36
22651;BME280;11492;42.646;23.400;2023-07-13T07:28:21;95301.16;;;27.54;49.57
22651;BME280;11492;42.646;23.400;2023-07-13T07:30:47;95293.88;;;27.69;49.37
22651;BME280;11492;42.646;23.400;2023-07-13T07:33:14;95302.03;;;27.77;48.50
22651;BME280;11492;42.646;23.400;2023-07-13T07:35:40;95299.09;;;27.83;48.71
22651;BME280;11492;42.646;23.400;2023-07-13T07:38:05;95287.16;;;27.86;48.95
22651;BME280;11492;42.646;23.400;2023-07-13T07:40:31;95293.38;;;28.00;48.08
22651;BME280;11492;42.646;23.400;2023-07-13T07:42:57;95291.72;;;28.08;46.79
22651;BME280;11492;42.646;23.400;2023-07-13T07:45:23;95298.53;;;28.19;46.30
22651;BME280;11492;42.646;23.400;2023-07-13T07:47:48;95297.66;;;28.29;46.03
22651;BME280;11492;42.646;23.400;2023-07-13T07:50:14;95287.66;;;28.49;44.81
22651;BME280;11492;42.646;23.400;2023-07-13T07:52:39;95281.91;;;28.65;43.82
22651;BME280;11492;42.646;23.400;2023-07-13T07:55:06;95285.19;;;28.80;44.19
22651;BME280;11492;42.646;23.400;2023-07-13T07:57:32;95281.34;;;28.91;44.83
22651;BME280;11492;42.646;23.400;2023-07-13T07:59:58;95278.09;;;28.99;45.56
22651;BME280;11492;42.646;23.400;2023-07-13T08:02:24;95282.72;;;29.11;44.85
22651;BME280;11492;42.646;23.400;2023-07-13T08:04:50;95279.28;;;29.29;44.86
22651;BME280;11492;42.646;23.400;2023-07-13T08:07:15;95268.34;;;29.49;44.71
22651;BME280;11492;42.646;23.400;2023-07-13T08:09:40;95258.88;;;29.79;44.14
22651;BME280;11492;42.646;23.400;2023-07-13T08:12:06;95264.31;;;30.06;43.80
22651;BME280;11492;42.646;23.400;2023-07-13T08:14:32;95246.91;;;30.26;43.11
22651;BME280;11492;42.646;23.400;2023-07-13T08:16:58;95251.41;;;30.57;42.31
22651;BME280;11492;42.646;23.400;2023-07-13T08:19:23;95247.00;;;30.79;42.11
22651;BME280;11492;42.646;23.400;2023-07-13T08:21:49;95252.34;;;31.06;41.76
22651;BME280;11492;42.646;23.400;2023-07-13T08:24:14;95243.81;;;31.30;41.62
22651;BME280;11492;42.646;23.400;2023-07-13T08:26:40;95248.00;;;31.58;41.01
22651;BME280;11492;42.646;23.400;2023-07-13T08:29:05;95239.25;;;31.79;41.72
22651;BME280;11492;42.646;23.400;2023-07-13T08:31:31;95245.97;;;31.98;39.80
22651;BME280;11492;42.646;23.400;2023-07-13T08:33:56;95233.00;;;32.05;40.17
22651;BME280;11492;42.646;23.400;2023-07-13T08:36:22;95238.13;;;32.14;39.91
22651;BME280;11492;42.646;23.400;2023-07-13T08:38:47;95238.94;;;32.23;39.97
22651;BME280;11492;42.646;23.400;2023-07-13T08:41:16;95234.91;;;32.56;40.05
22651;BME280;11492;42.646;23.400;2023-07-13T08:43:45;95234.03;;;32.68;38.47
22651;BME280;11492;42.646;23.400;2023-07-13T08:46:25;95230.34;;;32.94;38.65
22651;BME280;11492;42.646;23.400;2023-07-13T08:48:57;95233.59;;;33.21;38.06
22651;BME280;11492;42.646;23.400;2023-07-13T08:54:04;95229.09;;;33.72;36.51
22651;BME280;11492;42.646;23.400;2023-07-13T08:56:32;95227.53;;;33.96;36.77
22651;BME280;11492;42.646;23.400;2023-07-13T08:59:03;95240.28;;;34.15;35.14
22651;BME280;11492;42.646;23.400;2023-07-13T09:01:51;95245.94;;;34.39;35.19
22651;BME280;11492;42.646;23.400;2023-07-13T09:04:26;95233.91;;;34.53;34.58
22651;BME280;11492;42.646;23.400;2023-07-13T09:12:09;95255.53;;;34.65;35.48
22651;BME280;11492;42.646;23.400;2023-07-13T09:17:12;95262.25;;;35.24;33.96
22651;BME280;11492;42.646;23.400;2023-07-13T09:19:40;95260.03;;;35.55;34.07
22651;BME280;11492;42.646;23.400;2023-07-13T09:22:12;95263.34;;;35.80;33.56
22651;BME280;11492;42.646;23.400;2023-07-13T09:27:15;95261.81;;;36.31;32.97
22651;BME280;11492;42.646;23.400;2023-07-13T09:29:47;95269.34;;;36.58;32.32
22651;BME280;11492;42.646;23.400;2023-07-13T09:32:18;95265.25;;;36.20;32.36
22651;BME280;11492;42.646;23.400;2023-07-13T09:34:51;95252.34;;;36.14;32.44
22651;BME280;11492;42.646;23.400;2023-07-13T09:37:17;95267.41;;;36.26;32.94
22651;BME280;11492;42.646;23.400;2023-07-13T09:39:44;95260.78;;;36.44;32.60
22651;BME280;11492;42.646;23.400;2023-07-13T09:42:16;95261.41;;;36.73;31.67
22651;BME280;11492;42.646;23.400;2023-07-13T09:47:18;95255.50;;;37.15;31.83
22651;BME280;11492;42.646;23.400;2023-07-13T09:49:44;95249.25;;;37.34;30.37
22651;BME280;11492;42.646;23.400;2023-07-13T09:52:12;95247.56;;;37.42;30.76
22651;BME280;11492;42.646;23.400;2023-07-13T09:54:43;95235.56;;;37.27;30.67
22651;BME280;11492;42.646;23.400;2023-07-13T09:57:15;95234.00;;;37.26;29.76
22651;BME280;11492;42.646;23.400;2023-07-13T09:59:44;95233.06;;;37.34;31.27
22651;BME280;11492;42.646;23.400;2023-07-13T10:04:55;95217.00;;;37.26;30.84
22651;BME280;11492;42.646;23.400;2023-07-13T10:07:23;95219.16;;;37.32;29.89
22651;BME280;11492;42.646;23.400;2023-07-13T10:09:52;95216.28;;;37.05;30.09
22651;BME280;11492;42.646;23.400;2023-07-13T10:12:19;95203.63;;;37.06;31.27
22651;BME280;11492;42.646;23.400;2023-07-13T10:14:44;95207.44;;;37.17;31.59
22651;BME280;11492;42.646;23.400;2023-07-13T10:17:12;95207.56;;;37.32;31.39
22651;BME280;11492;42.646;23.400;2023-07-13T10:19:41;95213.34;;;37.57;31.29
22651;BME280;11492;42.646;23.400;2023-07-13T10:22:24;95206.72;;;37.78;30.28
22651;BME280;11492;42.646;23.400;2023-07-13T10:24:51;95210.97;;;37.79;29.85
22651;BME280;11492;42.646;23.400;2023-07-13T10:27:23;95211.72;;;37.29;30.39
22651;BME280;11492;42.646;23.400;2023-07-13T10:29:58;95213.84;;;37.47;30.68
22651;BME280;11492;42.646;23.400;2023-07-13T10:32:26;95205.72;;;37.71;29.63
22651;BME280;11492;42.646;23.400;2023-07-13T10:34:51;95197.97;;;37.96;30.04
22651;BME280;11492;42.646;23.400;2023-07-13T10:37:31;95189.75;;;37.93;29.59
22651;BME280;11492;42.646;23.400;2023-07-13T10:40:00;95188.13;;;38.04;28.73
22651;BME280;11492;42.646;23.400;2023-07-13T10:42:33;95194.44;;;38.08;29.70
22651;BME280;11492;42.646;23.400;2023-07-13T10:45:00;95192.25;;;38.25;30.27
22651;BME280;11492;42.646;23.400;2023-07-13T10:47:26;95181.72;;;38.35;29.74
22651;BME280;11492;42.646;23.400;2023-07-13T10:49:56;95174.47;;;38.39;28.53
22651;BME280;11492;42.646;23.400;2023-07-13T10:52:55;95165.19;;;38.52;28.97
22651;BME280;11492;42.646;23.400;2023-07-13T10:55:38;95162.69;;;38.74;28.64
22651;BME280;11492;42.646;23.400;2023-07-13T10:58:23;95165.47;;;38.77;27.74
22651;BME280;11492;42.646;23.400;2023-07-13T11:01:03;95155.88;;;38.80;28.08
22651;BME280;11492;42.646;23.400;2023-07-13T11:03:30;95152.63;;;38.90;27.86
22651;BME280;11492;42.646;23.400;2023-07-13T11:06:16;95149.56;;;38.91;27.97
22651;BME280;11492;42.646;23.400;2023-07-13T11:14:01;95139.25;;;39.27;28.17
22651;BME280;11492;42.646;23.400;2023-07-13T11:16:44;95129.69;;;39.14;28.42
22651;BME280;11492;42.646;23.400;2023-07-13T11:36:05;95114.31;;;39.52;28.01
22651;BME280;11492;42.646;23.400;2023-07-13T11:38:40;95102.78;;;39.55;27.67
22651;BME280;11492;42.646;23.400;2023-07-13T11:41:21;95108.31;;;39.43;26.81
22651;BME280;11492;42.646;23.400;2023-07-13T11:43:52;95112.88;;;39.58;27.02
22651;BME280;11492;42.646;23.400;2023-07-13T11:46:24;95105.53;;;39.58;27.32
22651;BME280;11492;42.646;23.400;2023-07-13T11:48:51;95107.97;;;39.63;27.70
22651;BME280;11492;42.646;23.400;2023-07-13T11:51:37;95104.69;;;39.73;27.42
22651;BME280;11492;42.646;23.400;2023-07-13T11:54:33;95112.75;;;39.70;27.18
22651;BME280;11492;42.646;23.400;2023-07-13T11:57:00;95094.59;;;39.70;27.09
22651;BME280;11492;42.646;23.400;2023-07-13T11:59:27;95095.94;;;39.61;26.19
22651;BME280;11492;42.646;23.400;2023-07-13T12:01:54;95090.78;;;39.74;24.95
22651;BME280;11492;42.646;23.400;2023-07-13T12:04:26;95091.38;;;39.83;23.36
22651;BME280;11492;42.646;23.400;2023-07-13T12:07:17;95077.38;;;40.00;24.14
22651;BME280;11492;42.646;23.400;2023-07-13T12:09:43;95078.13;;;39.97;25.93
22651;BME280;11492;42.646;23.400;2023-07-13T12:12:18;95082.38;;;39.98;25.09
22651;BME280;11492;42.646;23.400;2023-07-13T12:14:44;95074.56;;;40.15;23.92
22651;BME280;11492;42.646;23.400;2023-07-13T12:17:16;95084.66;;;40.37;23.16
22651;BME280;11492;42.646;23.400;2023-07-13T12:19:43;95087.53;;;40.47;23.11
22651;BME280;11492;42.646;23.400;2023-07-13T12:22:12;95077.44;;;40.44;23.32
22651;BME280;11492;42.646;23.400;2023-07-13T12:24:38;95067.69;;;40.40;22.10
22651;BME280;11492;42.646;23.400;2023-07-13T12:27:05;95059.44;;;40.33;23.15
22651;BME280;11492;42.646;23.400;2023-07-13T12:29:32;95056.88;;;40.21;23.99
22651;BME280;11492;42.646;23.400;2023-07-13T12:31:58;95053.97;;;40.11;23.75
22651;BME280;11492;42.646;23.400;2023-07-13T12:34:26;95050.97;;;40.16;24.17
22651;BME280;11492;42.646;23.400;2023-07-13T12:36:52;95061.38;;;40.14;24.04
22651;BME280;11492;42.646;23.400;2023-07-13T12:39:37;95052.22;;;39.99;23.88
22651;BME280;11492;42.646;23.400;2023-07-13T12:42:23;95043.69;;;39.97;23.90
22651;BME280;11492;42.646;23.400;2023-07-13T12:44:53;95038.75;;;39.81;23.82
22651;BME280;11492;42.646;23.400;2023-07-13T12:47:20;95040.06;;;39.53;24.50
22651;BME280;11492;42.646;23.400;2023-07-13T12:49:57;95038.38;;;39.45;25.05
22651;BME280;11492;42.646;23.400;2023-07-13T12:52:28;95039.03;;;39.39;25.05
22651;BME280;11492;42.646;23.400;2023-07-13T12:55:07;95034.50;;;39.27;24.48
22651;BME280;11492;42.646;23.400;2023-07-13T12:57:53;95028.66;;;39.25;25.13
22651;BME280;11492;42.646;23.400;2023-07-13T13:00:36;95025.84;;;39.19;25.14
22651;BME280;11492;42.646;23.400;2023-07-13T13:06:21;95026.38;;;39.09;24.08
22651;BME280;11492;42.646;23.400;2023-07-13T13:08:58;95011.66;;;38.91;24.74
22651;BME280;11492;42.646;23.400;2023-07-13T13:11:26;95013.88;;;38.86;25.45
22651;BME280;11492;42.646;23.400;2023-07-13T13:13:52;95006.75;;;38.78;25.75
22651;BME280;11492;42.646;23.400;2023-07-13T13:19:15;95003.03;;;38.52;25.39
22651;BME280;11492;42.646;23.400;2023-07-13T13:21:44;95007.94;;;38.31;26.58
22651;BME280;11492;42.646;23.400;2023-07-13T13:24:15;94998.19;;;38.12;25.89
22651;BME280;11492;42.646;23.400;2023-07-13T13:26:43;95004.81;;;38.14;26.28
22651;BME280;11492;42.646;23.400;2023-07-13T13:29:15;95000.44;;;38.10;26.34
22651;BME280;11492;42.646;23.400;2023-07-13T13:31:41;94999.56;;;38.06;26.20
22651;BME280;11492;42.646;23.400;2023-07-13T13:34:12;95003.72;;;38.03;25.65
22651;BME280;11492;42.646;23.400;2023-07-13T13:36:39;94998.25;;;38.00;25.82
22651;BME280;11492;42.646;23.400;2023-07-13T13:39:21;95001.56;;;37.93;26.24
22651;BME280;11492;42.646;23.400;2023-07-13T13:41:49;94996.75;;;37.87;26.68
22651;BME280;11492;42.646;23.400;2023-07-13T13:44:18;94991.31;;;37.84;26.51